Архив погоды в Октябрьском

Метеограмма Октябрьское
Четверг, 20 Июня
Время местн. Темп Ветер Видим Явления Облачность нижн/средн/верх Атм. давл. Влжн Точка росы ВНГО R Сост. почвы Tg s
Напр Скр Прв ур.ст ур.м изм
20:00 +14.7° Ю-В 1 - 20 км - облачно 747 753 -1 58% +6.6° 1.5 км 0 - - -
17:00 +16.2° Ю-В 1 - 20 км - облачно 748 754 -0.8 42% +3.3° 1.5 км - - - -
14:00 +15.9° З,С-З 3 - 20 км - облачно 749 755 -0.4 40% +2.4° более 2.5 км - - - -
11:00 +13.5° З 4 - 20 км - облачно 749 756 +0.3 50% +3.4° более 2.5 км - - - -
08:00 +11.2° З 2 - 20 км - облачно 749 755 +0.5 60% +3.7° 1.5 км 0 Сухая (без трещин) +7° -
05:00 +5.3° З,С-З 1 - 20 км - облачно 748 755 +0.2 80% +2.1° 1.5 км - - - -
02:00 +5.8° С-В 1 - 20 км - облачно 748 755 +0.2 75% +1.7° 1 км - - - -
Среда, 19 Июня
Время местн. Темп Ветер Видим Явления Облачность нижн/средн/верх Атм. давл. Влжн Точка росы ВНГО R Сост. почвы Tg s
Напр Скр Прв ур.ст ур.м изм
23:00 +8.1° С,С-В 1 - 20 км - облачно 748 755 +0.7 66% +2.2° - - - - -
20:00 +15.4° С 1 - 20 км - облачно 747 754 +0.6 34% -0.2° 1.5 км 0 - - -
17:00 +15.8° С,С-З 3 - 20 км - облачно 747 753 +0.2 35% +0.3° 1.5 км - - - -
14:00 +14.5° З,С-З 3 - 20 км - облачно 747 753 +0.1 37% +0.1° 1.5 км - - - -
11:00 +12.6° З 3 - 20 км - облачно 747 753 -0.2 41% -0.2° 1.5 км - - - -
08:00 +9.8° З 2 - 20 км - переменная облачность 747 753 +0.2 67% +3.9° 1.5 км 0 Влажная (без луж) - -
05:00 +4.4° С 1 - 20 км - переменная облачность 747 753 +0.4 91% +3.1° - - - - -
02:00 +2.6° С,С-З 1 - 20 км - переменная облачность 746 753 +0.1 90% +1.2° 2 км - - - -
Вторник, 18 Июня
Время местн. Темп Ветер Видим Явления Облачность нижн/средн/верх Атм. давл. Влжн Точка росы ВНГО R Сост. почвы Tg s
Напр Скр Прв ур.ст ур.м изм
23:00 +6.1° С,С-В 1 - 20 км - переменная облачность 746 753 +0.3 75% +2.1° 1.5 км - - - -
20:00 +10.7° С-З 2 - 20 км - облачно с прояснениями 746 752 +0.7 53% +1.6° 1 км 0 - - -
17:00 +12.5° С-З 3 - 20 км небо без изменений {ливневые осадки} облачно 745 751 +0.2 50% +2.4° 1 км - - - -
14:00 +11.1° З 4 10 20 км - облачно с прояснениями 745 751 +0.4 56% +2.7° 1 км - - - -
11:00 +9.4° З,С-З 4 - 20 км - облачно 744 751 +0.2 60% +2.1° 1 км - - - -
08:00 +8.7° З,С-З 3 - 20 км - облачно 744 751 +0.5 74% +4.3° 1.5 км 0 - - -
05:00 +7.6° З,С-З 1 - 20 км - облачно 744 750 0 95% +6.9° 1.5 км - - - -
02:00 +7.2° С,С-З 1 - 20 км - облачно 744 750 -0.4 96% +6.6° 1.5 км - - - -
Понедельник, 17 Июня
Время местн. Темп Ветер Видим Явления Облачность нижн/средн/верх Атм. давл. Влжн Точка росы ВНГО R Сост. почвы Tg s
Напр Скр Прв ур.ст ур.м изм
23:00 +8.5° С-В 1 - 20 км небо без изменений {ливневые осадки} облачно 744 751 +0.1 93% +7.5° 1.5 км - - - -
20:00 +10.1° Ю-З 1 - 20 км ливневый дождь облачно 744 751 +0.3 87% +8° 1.5 км 3 - - -
17:00 +10.3° З,С-З 3 - 4 км слабый ливневый дождь облачно 744 750 +0.7 77% +6.5° 1 км - - - -